< Typhoon 196201 1962 Season Typhoon 196203 >
Typhoon 196202 (GEORGIA)
General InformationTrack Information on Google Maps || Disaster Info.ResourceGoogle EarthGE AnimationAtom FeedGeoJSON
Detalied Best Track (Time Zone = UTC)
Year Month Day Hour Lat. Long. Pressure (hPa) Wind (kt) Class Image Chart
1962 4 15 18 10.0 143.0 1004 0 2 -- Chart
1962 4 16 00 9.7 141.8 1004 0 2 -- Chart
1962 4 16 06 9.6 141.0 1002 0 2 -- Chart
1962 4 16 12 9.5 140.0 1000 0 2 -- Chart
1962 4 16 18 9.5 139.3 1000 0 2 -- Chart
1962 4 17 00 9.7 139.2 990 0 9 -- Chart
1962 4 17 06 9.8 139.8 985 0 9 -- Chart
1962 4 17 12 9.8 140.5 985 0 9 -- Chart
1962 4 17 18 9.8 141.0 985 0 9 -- Chart
1962 4 18 00 9.9 141.6 985 0 9 -- Chart
1962 4 18 06 10.2 142.2 975 0 9 -- Chart
1962 4 18 12 10.7 142.4 965 0 9 -- Chart
1962 4 18 18 11.4 142.6 960 0 9 -- Chart
1962 4 19 00 12.3 142.3 950 0 9 -- Chart
1962 4 19 06 13.0 142.0 950 0 9 -- Chart
1962 4 19 12 13.5 141.6 950 0 9 -- Chart
1962 4 19 18 14.0 141.4 950 0 9 -- Chart
1962 4 20 00 14.6 141.0 935 0 9 -- Chart
1962 4 20 06 15.4 140.6 930 0 9 -- Chart
1962 4 20 12 16.0 140.5 930 0 9 -- Chart
1962 4 20 18 16.7 140.5 930 0 9 -- Chart
1962 4 21 00 17.4 140.7 940 0 9 -- Chart
1962 4 21 06 18.2 141.3 935 0 9 -- Chart
1962 4 21 12 19.6 142.3 935 0 9 -- Chart
1962 4 21 18 21.0 143.5 935 0 9 -- Chart
1962 4 22 00 22.5 145.2 950 0 9 -- Chart
1962 4 22 06 23.8 146.8 950 0 9 -- Chart
1962 4 22 12 26.2 151.0 960 0 9 -- Chart
1962 4 22 18 30.7 151.7 970 0 9 -- Chart
1962 4 23 00 33.5 152.5 970 0 9 -- Chart
1962 4 23 06 36.5 153.3 975 0 9 -- Chart
1962 4 23 12 38.6 153.3 980 0 9 -- Chart
1962 4 23 18 40.0 153.3 982 0 9 -- Chart
1962 4 24 00 41.6 153.5 984 0 9 -- Chart
1962 4 24 06 43.5 154.0 984 0 9 -- Chart
1962 4 24 12 45.0 154.4 982 0 6 -- Chart
1962 4 24 18 46.0 154.9 980 0 6 -- Chart
1962 4 25 00 46.9 155.0 978 0 6 -- Chart
1962 4 25 06 47.7 155.6 978 0 6 -- Chart
1962 4 25 12 48.6 156.6 978 0 6 -- Chart
1962 4 25 18 49.4 158.0 980 0 6 -- Chart
1962 4 26 00 50.3 159.4 980 0 6 -- Chart
1962 4 26 06 50.8 158.9 992 0 6 -- Chart
1962 4 26 12 50.0 158.0 998 0 6 -- Chart
1962 4 26 18 48.8 157.8 1000 0 6 -- Chart
1962 4 27 00 47.5 158.5 1004 0 6 -- Chart
1962 4 27 06 46.0 159.4 1005 0 6 -- Chart
1962 4 27 12 45.7 160.8 1007 0 6 -- Chart
1962 4 27 18 46.0 162.3 1008 0 6 -- Chart
1962 4 28 00 46.5 163.6 1010 0 6 -- Chart
1962 4 28 06 46.8 164.0 1010 0 6 -- Chart
1962 4 28 12 47.1 164.5 1011 0 6 -- Chart
1962 4 28 18 47.4 164.8 1012 0 6 -- Chart
1962 4 29 00 47.6 165.1 1012 0 6 -- Chart
Japan Meteorological Agency Best Track Data | Correction Date : 1989-06-01
< Typhoon 196201 1962 Season Typhoon 196203 >

Help